Time;durP1;ratioP1;P1;durP2;ratioP2;P2;SDS_P1;SDS_P2;PMS_P1;PMS_P2;Temp;Humidity;BMP_temperature;BMP_pressure;BME280_temperature;BME280_humidity;BME280_pressure;Samples;Min_cycle;Max_cycle;Signal;HPM_P1;HPM_P2
2024/04/15 00:01:28;;;;;;;8.02;2.47;;;;;;;14.61;67.65;100218.97;7394917;19;20046;-80
2024/04/15 00:03:54;;;;;;;8.77;2.80;;;;;;;14.69;67.69;100225.50;7404761;19;20027;-79
2024/04/15 00:06:23;;;;;;;6.07;2.08;;;;;;;14.70;68.04;100223.69;7410232;19;20018;-79
2024/04/15 00:08:49;;;;;;;6.35;2.50;;;;;;;14.82;67.74;100245.97;7394821;19;20140;-80
2024/04/15 00:11:14;;;;;;;6.75;2.50;;;;;;;14.58;68.74;100204.03;7404971;19;20078;-79
2024/04/15 00:13:40;;;;;;;5.63;2.83;;;;;;;14.68;68.91;100223.78;7398621;19;20014;-79
2024/04/15 00:16:09;;;;;;;4.60;2.00;;;;;;;13.85;69.47;100077.53;7397299;19;20014;-79
2024/04/15 00:18:35;;;;;;;4.78;2.20;;;;;;;14.81;69.44;100229.13;7403714;19;20037;-79
2024/04/15 00:21:02;;;;;;;5.78;2.70;;;;;;;14.87;69.39;100233.22;7398836;19;20006;-78
2024/04/15 00:23:28;;;;;;;3.97;2.20;;;;;;;14.73;69.67;100213.66;7399081;19;20011;-79
2024/04/15 00:26:00;;;;;;;5.00;2.35;;;;;;;14.46;70.50;100174.69;7399167;19;20026;-80
2024/04/15 00:28:27;;;;;;;7.53;2.25;;;;;;;14.81;69.83;100218.47;7395457;19;20015;-80
2024/04/15 00:30:52;;;;;;;4.65;2.13;;;;;;;14.44;70.55;100163.28;7394383;19;20681;-79
2024/04/15 00:33:20;;;;;;;5.25;2.50;;;;;;;14.43;70.39;100142.91;7400078;19;20010;-81
2024/04/15 00:35:46;;;;;;;5.65;2.45;;;;;;;14.92;69.62;100201.78;7399308;19;20025;-81
2024/04/15 00:38:17;;;;;;;6.35;2.22;;;;;;;14.84;69.41;100188.94;7396570;19;20014;-79
2024/04/15 00:40:43;;;;;;;5.00;2.78;;;;;;;14.55;70.11;100126.09;7394362;19;20038;-79
2024/04/15 00:43:09;;;;;;;5.30;2.60;;;;;;;14.92;70.60;100181.28;7396048;19;20006;-81
2024/04/15 00:45:35;;;;;;;6.00;2.38;;;;;;;14.93;71.61;100177.69;7397071;19;20024;-80
2024/04/15 00:48:04;;;;;;;7.63;2.40;;;;;;;14.71;71.62;100143.63;7390461;19;20014;-81
2024/04/15 00:50:32;;;;;;;4.88;2.30;;;;;;;14.97;72.73;100179.16;7392601;19;20026;-79
2024/04/15 00:53:04;;;;;;;5.80;2.35;;;;;;;14.52;73.16;100092.53;7395320;19;20007;-81
2024/04/15 00:55:32;;;;;;;7.80;2.75;;;;;;;14.85;72.17;100141.81;7395309;19;20007;-82
2024/04/15 00:58:00;;;;;;;7.53;3.13;;;;;;;14.88;73.16;100152.28;7403569;19;20013;-78
2024/04/15 01:00:26;;;;;;;5.20;2.75;;;;;;;14.45;73.73;100096.56;7393069;19;20377;-79
2024/04/15 01:02:52;;;;;;;7.35;3.20;;;;;;;14.46;74.80;100097.44;7397697;19;20006;-78
2024/04/15 01:05:20;;;;;;;4.25;2.40;;;;;;;14.61;76.03;100129.22;7398945;19;20068;-79
2024/04/15 01:07:47;;;;;;;6.82;2.55;;;;;;;14.59;75.58;100119.63;7399655;19;20458;-82
2024/04/15 01:10:24;;;;;;;6.13;2.72;;;;;;;14.75;75.14;100157.59;7397877;19;20309;-81
2024/04/15 01:12:51;;;;;;;6.13;2.72;;;;;;;14.53;76.21;100122.69;7400258;19;20034;-79
2024/04/15 01:15:16;;;;;;;7.43;2.75;;;;;;;14.45;76.64;100117.88;7401319;19;20018;-80
2024/04/15 01:17:43;;;;;;;5.45;2.63;;;;;;;14.64;76.78;100144.13;7401465;19;20044;-78
2024/04/15 01:20:09;;;;;;;5.78;3.20;;;;;;;14.64;76.22;100144.97;7394897;19;20014;-81
2024/04/15 01:22:44;;;;;;;6.85;2.83;;;;;;;14.63;74.95;100134.44;7393326;19;20038;-80
2024/04/15 01:25:12;;;;;;;4.75;2.70;;;;;;;14.64;75.54;100130.81;7397047;19;20003;-80
2024/04/15 01:27:39;;;;;;;5.53;2.97;;;;;;;14.69;75.34;100142.88;7394475;19;20010;-80
2024/04/15 01:30:08;;;;;;;5.57;3.10;;;;;;;14.39;75.67;100078.31;7370215;19;20010;-80
2024/04/15 01:32:35;;;;;;;10.15;2.92;;;;;;;14.34;75.04;100072.41;7374391;19;20014;-79
2024/04/15 01:35:00;;;;;;;5.68;2.47;;;;;;;14.52;75.37;100099.66;7395343;19;20014;-80
2024/04/15 01:37:28;;;;;;;2.80;2.38;;;;;;;14.59;75.47;100108.97;7394150;19;20010;-79
2024/04/15 01:39:59;;;;;;;5.93;2.78;;;;;;;14.61;76.57;100117.72;7388806;19;20003;-80
2024/04/15 01:42:26;;;;;;;5.23;3.07;;;;;;;14.38;75.90;100071.25;7393356;19;20025;-81
2024/04/15 01:44:51;;;;;;;6.13;3.33;;;;;;;14.28;75.72;100054.22;7395829;19;20002;-79
2024/04/15 01:47:17;;;;;;;6.78;3.03;;;;;;;14.31;73.97;100057.53;7397678;19;20508;-81
2024/04/15 01:49:43;;;;;;;7.38;2.95;;;;;;;14.68;73.49;100097.66;7393484;19;20018;-78
2024/04/15 01:52:08;;;;;;;4.63;2.97;;;;;;;14.61;74.74;100101.72;7394157;19;20014;-81
2024/04/15 01:54:34;;;;;;;4.97;2.80;;;;;;;14.57;73.72;100097.53;7394750;19;20085;-79
2024/04/15 01:57:00;;;;;;;9.18;2.92;;;;;;;14.49;74.73;100081.22;7389991;19;20022;-80
2024/04/15 01:59:25;;;;;;;5.78;2.63;;;;;;;14.25;75.42;100044.63;7367817;19;20014;-79
2024/04/15 02:01:52;;;;;;;4.57;2.63;;;;;;;14.53;73.21;100088.03;7391816;19;20014;-80
2024/04/15 02:04:18;;;;;;;6.00;3.20;;;;;;;14.38;73.57;100074.78;7395105;19;20098;-80
2024/04/15 02:06:44;;;;;;;8.55;3.30;;;;;;;14.17;74.49;100046.91;7396043;19;20021;-80
2024/04/15 02:09:10;;;;;;;9.73;3.00;;;;;;;14.28;75.71;100065.72;7392557;19;20384;-80
2024/04/15 02:11:36;;;;;;;6.40;3.22;;;;;;;14.15;76.75;100042.69;7395178;19;20018;-81
2024/04/15 02:14:02;;;;;;;5.05;2.97;;;;;;;14.15;76.25;100048.00;7399637;19;20029;-80
2024/04/15 02:16:28;;;;;;;9.43;3.67;;;;;;;14.28;77.35;100072.84;7411466;19;20007;-79
2024/04/15 02:18:54;;;;;;;5.93;2.95;;;;;;;14.01;77.71;100017.81;7410511;19;20007;-78
2024/04/15 02:21:19;;;;;;;5.95;3.00;;;;;;;13.93;77.68;100020.16;7395747;19;20009;-80
2024/04/15 02:23:45;;;;;;;7.35;2.67;;;;;;;13.88;78.38;100000.09;7398689;19;20015;-80
2024/04/15 02:26:10;;;;;;;6.43;2.50;;;;;;;13.51;78.66;99936.06;7396041;19;20787;-79
2024/04/15 02:28:36;;;;;;;6.22;3.20;;;;;;;13.95;78.69;100017.38;7394103;19;20010;-81
2024/04/15 02:31:02;;;;;;;4.47;3.00;;;;;;;14.14;77.85;100056.94;7390274;19;20018;-78
2024/04/15 02:33:30;;;;;;;5.63;2.92;;;;;;;14.08;79.55;100050.22;7394473;19;20029;-80
2024/04/15 02:35:57;;;;;;;8.60;2.78;;;;;;;13.73;81.46;100009.09;7397321;19;20014;-79
2024/04/15 02:38:23;;;;;;;4.68;2.90;;;;;;;13.78;83.18;100030.94;7391819;19;20043;-78
2024/04/15 02:40:48;;;;;;;5.95;2.75;;;;;;;13.81;85.38;100041.41;7391772;19;20026;-81
2024/04/15 02:43:14;;;;;;;9.48;3.30;;;;;;;13.47;86.25;99993.06;7395918;19;20036;-79
2024/04/15 02:45:42;;;;;;;8.32;3.53;;;;;;;13.81;87.21;100054.72;7395366;19;20010;-79
2024/04/15 02:48:09;;;;;;;6.60;3.20;;;;;;;13.63;88.19;100030.16;7370507;19;20737;-79
2024/04/15 02:50:35;;;;;;;6.32;3.00;;;;;;;13.70;88.53;100034.97;7397731;19;20347;-79
2024/04/15 02:53:02;;;;;;;6.68;3.22;;;;;;;13.85;89.14;100077.53;7397048;19;20069;-79
2024/04/15 02:55:28;;;;;;;6.78;3.03;;;;;;;13.48;90.49;100028.50;7393308;19;20007;-79
2024/04/15 02:57:53;;;;;;;8.70;3.00;;;;;;;13.64;91.13;100064.66;7403230;19;20035;-80
2024/04/15 03:00:19;;;;;;;8.63;3.70;;;;;;;13.47;92.71;100030.28;7385715;19;20015;-79
2024/04/15 03:02:46;;;;;;;8.13;3.25;;;;;;;13.69;94.40;100073.16;7389188;19;20451;-80
2024/04/15 03:05:11;;;;;;;7.55;3.45;;;;;;;13.73;95.21;100073.81;7392553;19;20022;-79
2024/04/15 03:07:37;;;;;;;6.10;3.30;;;;;;;13.73;94.78;100065.00;7392197;19;20019;-79
2024/04/15 03:10:03;;;;;;;6.95;3.17;;;;;;;13.73;94.78;100051.69;7365948;19;20049;-78
2024/04/15 03:12:29;;;;;;;6.97;3.28;;;;;;;13.24;95.67;99983.03;7389472;19;20359;-77
2024/04/15 03:14:54;;;;;;;7.22;3.20;;;;;;;13.53;97.04;100021.94;7393173;19;20022;-79
2024/04/15 03:17:20;;;;;;;5.57;3.15;;;;;;;13.68;97.32;100041.38;7404135;19;20014;-79
2024/04/15 03:19:54;;;;;;;6.40;3.10;;;;;;;13.59;97.54;100028.63;7389803;19;20017;-79
2024/04/15 03:22:20;;;;;;;6.03;3.42;;;;;;;13.66;97.54;100033.47;7392437;19;20011;-81
2024/04/15 03:24:50;;;;;;;5.45;3.60;;;;;;;13.73;97.06;100036.56;7392437;19;20010;-78
2024/04/15 03:27:16;;;;;;;5.95;3.50;;;;;;;13.69;95.92;100033.25;7392953;19;20487;-79
2024/04/15 03:29:42;;;;;;;10.75;3.63;;;;;;;13.68;96.23;100038.69;7389248;19;20021;-80
2024/04/15 03:32:09;;;;;;;4.60;3.00;;;;;;;13.18;96.94;99949.75;7391476;19;20007;-79
2024/04/15 03:34:34;;;;;;;4.90;2.92;;;;;;;13.63;96.79;100023.03;7393093;19;20050;-81
2024/04/15 03:37:07;;;;;;;6.53;3.22;;;;;;;13.64;97.36;100029.19;7391598;19;20010;-81
2024/04/15 03:39:33;;;;;;;5.47;3.57;;;;;;;13.57;97.08;100019.91;7387096;19;20014;-80
2024/04/15 03:42:00;;;;;;;6.97;3.40;;;;;;;13.62;95.54;100031.97;7389511;19;20387;-79
2024/04/15 03:44:25;;;;;;;6.13;3.35;;;;;;;13.53;94.83;100019.28;7390194;19;20017;-80
2024/04/15 03:46:52;;;;;;;6.13;3.08;;;;;;;13.67;96.94;100032.53;7388193;19;20007;-80
2024/04/15 03:49:17;;;;;;;11.55;4.05;;;;;;;13.29;97.75;99971.16;7369276;19;20025;-80
2024/04/15 03:51:43;;;;;;;9.77;3.83;;;;;;;13.58;96.99;100024.28;7389525;19;20034;-79
2024/04/15 03:54:09;;;;;;;8.23;3.65;;;;;;;13.12;100.00;99958.06;7390920;19;20050;-80
2024/04/15 03:56:34;;;;;;;7.07;3.95;;;;;;;13.49;100.00;100040.84;7392443;19;20089;-79
2024/04/15 03:59:02;;;;;;;7.72;4.43;;;;;;;13.48;100.00;100031.16;7389486;19;20041;-78
2024/04/15 04:01:28;;;;;;;10.50;4.38;;;;;;;13.29;100.00;100004.88;7383268;19;20447;-78
2024/04/15 04:03:57;;;;;;;9.65;4.65;;;;;;;12.96;100.00;99960.84;7390426;19;20046;-80
2024/04/15 04:06:22;;;;;;;6.97;3.75;;;;;;;13.26;100.00;100024.53;7389878;19;20015;-81
2024/04/15 04:08:50;;;;;;;10.23;4.78;;;;;;;13.29;100.00;100045.63;7390294;19;20035;-79
2024/04/15 04:11:16;;;;;;;11.05;5.22;;;;;;;13.16;100.00;100028.75;7387876;19;20007;-78
2024/04/15 04:13:43;;;;;;;9.90;5.32;;;;;;;12.96;100.00;100014.00;7390320;19;20011;-79
2024/04/15 04:16:12;;;;;;;9.85;5.05;;;;;;;13.06;100.00;100040.03;7391554;19;20557;-79
2024/04/15 04:18:39;;;;;;;7.88;4.80;;;;;;;13.05;100.00;100040.97;7391448;19;20021;-79
2024/04/15 04:21:12;;;;;;;7.47;4.88;;;;;;;12.83;100.00;100013.06;7385679;19;20014;-80
2024/04/15 04:23:38;;;;;;;9.73;4.00;;;;;;;12.94;100.00;100031.84;7395180;19;20019;-79
2024/04/15 04:26:03;;;;;;;8.90;4.93;;;;;;;13.00;100.00;100038.59;7406142;19;20054;-79
2024/04/15 04:28:29;;;;;;;11.07;4.90;;;;;;;12.94;100.00;100029.19;7413282;19;20018;-79
2024/04/15 04:31:03;;;;;;;7.88;4.95;;;;;;;13.10;100.00;100057.47;7389126;19;20054;-79
2024/04/15 04:33:31;;;;;;;9.35;4.60;;;;;;;13.04;100.00;100039.28;7393375;19;20011;-79
2024/04/15 04:35:57;;;;;;;11.55;5.50;;;;;;;12.97;100.00;100038.78;7391005;19;20019;-77
2024/04/15 04:38:22;;;;;;;9.07;5.35;;;;;;;12.94;100.00;100036.31;7388998;19;20022;-81
2024/04/15 04:40:58;;;;;;;9.23;5.13;;;;;;;13.11;100.00;100053.88;7386229;19;20019;-79
2024/04/15 04:43:24;;;;;;;10.88;5.60;;;;;;;12.98;100.00;100036.03;7385671;19;20022;-81
2024/04/15 04:45:51;;;;;;;11.05;5.28;;;;;;;13.06;100.00;100053.31;7389596;19;20017;-79
2024/04/15 04:48:19;;;;;;;6.50;5.53;;;;;;;13.11;100.00;100056.53;7390742;19;20023;-77
2024/04/15 04:50:47;;;;;;;10.85;5.63;;;;;;;13.07;100.00;100053.19;7385321;19;20060;-79
2024/04/15 04:53:15;;;;;;;12.18;6.18;;;;;;;13.06;100.00;100055.97;7389094;19;20021;-78
2024/04/15 04:55:40;;;;;;;8.90;5.65;;;;;;;12.53;100.00;99960.06;7391188;19;20018;-79
2024/04/15 04:58:06;;;;;;;10.60;6.47;;;;;;;13.05;100.00;100052.47;7398668;19;20027;-79
2024/04/15 05:00:32;;;;;;;10.35;6.95;;;;;;;12.95;100.00;100057.47;7387584;19;20039;-80
2024/04/15 05:02:58;;;;;;;9.30;6.03;;;;;;;12.99;100.00;100067.00;7395906;19;20022;-77
2024/04/15 05:05:24;;;;;;;9.13;6.72;;;;;;;12.97;100.00;100063.56;7397353;19;20097;-77
2024/04/15 05:07:50;;;;;;;13.95;6.80;;;;;;;12.95;100.00;100064.59;7390704;19;20042;-78
2024/04/15 05:10:16;;;;;;;15.02;7.00;;;;;;;12.94;100.00;100055.78;7388836;19;20031;-79
2024/04/15 05:12:41;;;;;;;10.00;6.95;;;;;;;12.90;100.00;100051.63;7394082;19;20034;-77
2024/04/15 05:15:07;;;;;;;9.05;6.07;;;;;;;12.99;100.00;100047.53;7395232;19;20007;-81
2024/04/15 05:17:35;;;;;;;9.70;5.47;;;;;;;12.74;100.00;100028.75;7399040;19;20017;-80
2024/04/15 05:20:01;;;;;;;11.55;6.07;;;;;;;12.52;100.00;99950.38;7396118;19;20404;-78
2024/04/15 05:22:27;;;;;;;10.75;5.35;;;;;;;12.95;100.00;100020.28;7392012;19;20018;-79
2024/04/15 05:24:53;;;;;;;9.68;5.32;;;;;;;12.56;100.00;99966.97;7394613;19;20010;-78
2024/04/15 05:27:21;;;;;;;7.70;4.60;;;;;;;12.83;100.00;100007.75;7391306;19;20006;-79
2024/04/15 05:29:46;;;;;;;10.48;5.85;;;;;;;12.77;100.00;100008.13;7397515;19;20007;-77
2024/04/15 05:32:12;;;;;;;8.95;5.50;;;;;;;12.63;100.00;99974.47;7395043;19;20014;-78
2024/04/15 05:34:40;;;;;;;9.85;5.95;;;;;;;13.01;100.00;100045.63;7359907;19;20420;-78
2024/04/15 05:37:05;;;;;;;9.10;5.60;;;;;;;12.94;100.00;100023.88;7393415;19;20123;-78
2024/04/15 05:39:31;;;;;;;10.63;5.32;;;;;;;12.90;100.00;100021.53;7391802;19;20031;-79
2024/04/15 05:41:58;;;;;;;9.88;6.28;;;;;;;12.99;100.00;100012.97;7387104;19;20011;-77
2024/04/15 05:44:23;;;;;;;8.98;6.03;;;;;;;12.74;100.00;99981.78;7380977;19;20042;-76
2024/04/15 05:46:51;;;;;;;11.88;5.72;;;;;;;13.00;100.00;100028.81;7391436;19;20580;-77
2024/04/15 05:49:17;;;;;;;10.38;5.40;;;;;;;12.93;100.00;99997.41;7392627;19;20006;-78
2024/04/15 05:51:45;;;;;;;11.25;5.20;;;;;;;13.18;100.00;100028.66;7390579;19;20009;-79
2024/04/15 05:54:12;;;;;;;14.05;5.68;;;;;;;13.15;100.00;100011.09;7395106;19;20029;-80
2024/04/15 05:56:38;;;;;;;10.43;5.13;;;;;;;13.15;100.00;100005.78;7391214;19;20018;-78
2024/04/15 05:59:04;;;;;;;13.68;5.07;;;;;;;13.17;100.00;100017.16;7392543;19;20034;-78
2024/04/15 06:01:30;;;;;;;14.57;5.78;;;;;;;13.11;100.00;99998.03;7387799;19;20050;-77
2024/04/15 06:03:55;;;;;;;11.25;4.63;;;;;;;12.71;100.00;99933.28;7384874;19;20576;-77
2024/04/15 06:06:21;;;;;;;12.43;4.70;;;;;;;13.04;100.00;99996.75;7390206;19;20022;-78
2024/04/15 06:08:47;;;;;;;10.68;4.57;;;;;;;12.96;100.00;99995.41;7392642;19;20013;-77
2024/04/15 06:11:14;;;;;;;10.35;4.78;;;;;;;12.91;100.00;100000.16;7386391;19;20015;-78
2024/04/15 06:13:40;;;;;;;10.73;4.60;;;;;;;12.99;100.00;100020.94;7371351;19;20031;-80
2024/04/15 06:16:09;;;;;;;8.75;4.97;;;;;;;12.69;100.00;99975.03;7392173;19;20469;-78
2024/04/15 06:18:34;;;;;;;12.38;4.82;;;;;;;12.63;100.00;99981.56;7389619;19;20010;-79
2024/04/15 06:21:01;;;;;;;9.73;3.97;;;;;;;12.83;100.00;100023.72;7386434;19;20649;-79
2024/04/15 06:23:28;;;;;;;11.07;4.70;;;;;;;13.02;100.00;100026.06;7394216;19;20407;-79
2024/04/15 06:25:54;;;;;;;14.43;5.15;;;;;;;12.85;100.00;99987.28;7393415;19;20042;-78
2024/04/15 06:28:20;;;;;;;12.93;5.05;;;;;;;13.06;100.00;100027.59;7396699;19;20027;-79
2024/04/15 06:30:46;;;;;;;13.70;4.60;;;;;;;12.64;100.00;99957.56;7391492;19;20034;-77
2024/04/15 06:33:11;;;;;;;13.48;4.80;;;;;;;12.61;100.00;99940.97;7415776;19;20005;-78
2024/04/15 06:35:37;;;;;;;9.10;4.63;;;;;;;12.59;100.00;99937.56;7421954;19;20003;-77
2024/04/15 06:38:03;;;;;;;11.02;5.03;;;;;;;12.28;100.00;99902.28;7401631;19;20014;-78
2024/04/15 06:40:30;;;;;;;12.15;4.93;;;;;;;12.41;100.00;99928.09;7390977;19;20022;-77
2024/04/15 06:42:56;;;;;;;12.40;4.90;;;;;;;12.65;100.00;99969.06;7392095;19;19999;-79
2024/04/15 06:45:22;;;;;;;9.43;4.82;;;;;;;12.73;100.00;99982.72;7393162;19;20058;-78
2024/04/15 06:47:50;;;;;;;8.07;5.53;;;;;;;12.74;100.00;99983.59;7390919;19;20379;-78
2024/04/15 06:50:19;;;;;;;16.17;4.85;;;;;;;12.88;100.00;100000.38;7388296;19;20010;-78
2024/04/15 06:52:44;;;;;;;9.35;5.07;;;;;;;12.95;100.00;99991.03;7391468;19;20023;-78
2024/04/15 06:55:10;;;;;;;10.85;5.60;;;;;;;12.93;100.00;99976.13;7392011;19;20010;-79
2024/04/15 06:57:35;;;;;;;12.77;5.47;;;;;;;12.74;100.00;99926.00;7407623;19;20011;-79
2024/04/15 07:00:02;;;;;;;12.38;5.32;;;;;;;13.18;100.00;99988.78;7391467;19;20007;-77
2024/04/15 07:02:28;;;;;;;10.52;5.40;;;;;;;13.04;100.00;99949.75;7388275;19;20010;-79
2024/04/15 07:04:54;;;;;;;10.07;5.40;;;;;;;13.13;100.00;99961.59;7393193;19;20034;-79
2024/04/15 07:07:23;;;;;;;12.65;5.68;;;;;;;13.32;100.00;99981.63;7391488;19;20003;-78
2024/04/15 07:09:49;;;;;;;15.55;6.07;;;;;;;12.96;100.00;99906.84;7392348;19;20498;-78
2024/04/15 07:12:15;;;;;;;9.65;5.85;;;;;;;13.23;100.00;99934.31;7382719;19;20026;-77
2024/04/15 07:14:40;;;;;;;9.38;5.18;;;;;;;13.49;100.00;99961.91;7389027;19;20367;-78
2024/04/15 07:17:06;;;;;;;12.05;4.35;;;;;;;13.09;98.13;99889.16;7392606;19;20010;-78
2024/04/15 07:19:31;;;;;;;10.95;4.70;;;;;;;13.63;96.50;99963.63;7391609;19;20014;-78
2024/04/15 07:21:57;;;;;;;10.73;3.95;;;;;;;13.62;92.85;99951.28;7385487;19;20042;-79
2024/04/15 07:24:23;;;;;;;7.65;3.70;;;;;;;13.70;89.28;99955.13;7392685;19;20041;-78
2024/04/15 07:26:48;;;;;;;5.57;3.33;;;;;;;12.78;91.13;99812.38;7393150;19;20018;-79
2024/04/15 07:29:14;;;;;;;8.70;3.47;;;;;;;13.49;92.91;99945.94;7370844;19;20025;-78
2024/04/15 07:31:40;;;;;;;11.73;3.90;;;;;;;13.47;92.33;99931.88;7387061;19;20027;-80
2024/04/15 07:34:06;;;;;;;10.02;3.90;;;;;;;13.47;92.00;99915.91;7390252;19;20014;-78
2024/04/15 07:36:32;;;;;;;7.47;3.65;;;;;;;13.76;91.25;99897.13;7389854;19;20007;-78
2024/04/15 07:38:58;;;;;;;4.30;2.90;;;;;;;14.28;81.67;99887.28;7393795;19;20028;-79
2024/04/15 07:41:25;;;;;;;8.60;3.30;;;;;;;15.00;78.21;99912.31;7388020;19;20015;-78
2024/04/15 07:43:52;;;;;;;6.90;3.08;;;;;;;15.11;74.73;99908.84;7389848;19;20389;-79
2024/04/15 07:46:17;;;;;;;4.75;2.97;;;;;;;14.87;73.52;99842.19;7389448;19;20364;-78
2024/04/15 07:48:44;;;;;;;7.90;2.53;;;;;;;15.56;70.88;99890.44;7389313;19;20459;-79
2024/04/15 07:51:10;;;;;;;4.88;2.50;;;;;;;15.67;68.31;99832.59;7386783;19;20019;-78
2024/04/15 07:53:35;;;;;;;3.85;2.90;;;;;;;16.12;69.08;99819.28;7388734;19;20122;-81
2024/04/15 07:56:01;;;;;;;7.40;3.40;;;;;;;16.80;65.31;99820.97;7388080;19;20372;-79
2024/04/15 07:58:34;;;;;;;7.63;3.42;;;;;;;17.54;61.63;99837.94;7387905;19;20049;-78
2024/04/15 08:00:59;;;;;;;;;;;;;;;17.75;59.84;99862.94;7389250;19;20014;-79
2024/04/15 08:03:25;;;;;;;12.35;4.63;;;;;;;17.33;60.53;99815.66;7388360;19;19918;-79
2024/04/15 08:05:51;;;;;;;11.13;5.03;;;;;;;16.71;63.37;99811.84;7390293;19;20011;-77
2024/04/15 08:08:18;;;;;;;13.90;5.00;;;;;;;16.51;66.67;99833.13;7367279;19;20411;-78
2024/04/15 08:10:44;;;;;;;10.32;4.50;;;;;;;16.34;69.13;99861.22;7388567;19;20030;-78
2024/04/15 08:13:09;;;;;;;7.25;4.15;;;;;;;16.64;70.11;99866.81;7388800;19;20007;-78
2024/04/15 08:15:35;;;;;;;6.22;3.10;;;;;;;17.10;60.73;99809.56;7393638;19;20025;-80
2024/04/15 08:18:01;;;;;;;3.55;2.25;;;;;;;17.33;56.52;99847.75;7389985;19;20031;-78
2024/04/15 08:20:27;;;;;;;8.00;2.55;;;;;;;17.13;55.56;99828.03;7388623;19;20017;-79
2024/04/15 08:22:55;;;;;;;5.15;2.10;;;;;;;16.10;55.20;99696.56;7383992;19;20014;-78
2024/04/15 08:25:22;;;;;;;5.65;1.70;;;;;;;16.21;55.52;99815.91;7390103;19;20019;-78
2024/04/15 08:27:49;;;;;;;3.80;1.30;;;;;;;16.22;55.59;99846.13;7387420;19;20014;-77
2024/04/15 08:30:14;;;;;;;8.85;1.40;;;;;;;15.93;54.91;99830.56;7389015;19;20019;-79
2024/04/15 08:32:40;;;;;;;4.72;0.93;;;;;;;16.25;54.07;99869.94;7360670;19;20018;-79
2024/04/15 08:35:06;;;;;;;3.50;1.00;;;;;;;16.21;52.81;99858.66;7388540;19;20054;-78
2024/04/15 08:37:32;;;;;;;3.80;0.90;;;;;;;15.73;51.75;99744.03;7418666;19;20020;-77
2024/04/15 08:39:59;;;;;;;7.38;0.95;;;;;;;16.09;51.81;99792.81;7424565;19;20054;-77
2024/04/15 08:42:38;;;;;;;8.55;1.10;;;;;;;16.36;51.91;99796.00;7410506;19;20149;-78
2024/04/15 08:45:07;;;;;;;4.82;0.90;;;;;;;17.01;50.74;99845.94;7403054;19;20037;-78
2024/04/15 08:47:34;;;;;;;4.78;1.08;;;;;;;16.84;50.09;99807.19;7393103;19;20010;-79
2024/04/15 08:50:05;;;;;;;2.22;0.98;;;;;;;17.04;50.04;99844.84;7395003;19;20025;-78
2024/04/15 08:52:31;;;;;;;;;;;;;;;17.05;50.03;99852.72;7393076;19;20705;-78
2024/04/15 08:54:56;;;;;;;6.05;1.20;;;;;;;15.98;52.29;99847.09;7396223;19;19932;-78
2024/04/15 08:57:24;;;;;;;5.85;1.20;;;;;;;15.30;54.50;99838.97;7400085;19;20058;-76
2024/04/15 08:59:51;;;;;;;6.38;0.88;;;;;;;14.59;55.50;99774.06;7401141;19;20019;-80
2024/04/15 09:02:16;;;;;;;6.22;0.90;;;;;;;15.06;56.51;99821.19;7389031;19;20018;-79
2024/04/15 09:04:42;;;;;;;4.50;1.27;;;;;;;15.23;56.18;99811.09;7394021;19;20018;-78
2024/04/15 09:07:08;;;;;;;4.18;1.10;;;;;;;15.40;56.47;99816.00;7392805;19;20020;-79
2024/04/15 09:09:36;;;;;;;2.88;0.98;;;;;;;15.49;56.19;99775.25;7396685;19;20018;-77
2024/04/15 09:12:01;;;;;;;5.68;1.20;;;;;;;15.75;54.49;99789.28;7401456;19;20130;-77
2024/04/15 09:14:27;;;;;;;4.72;0.90;;;;;;;15.45;53.90;99773.78;7404174;19;20022;-78
2024/04/15 09:16:54;;;;;;;3.53;1.30;;;;;;;14.98;54.98;99732.06;7395694;19;20014;-77
2024/04/15 09:19:25;;;;;;;3.78;1.02;;;;;;;15.18;57.17;99733.22;7396226;19;20046;-81
2024/04/15 09:21:50;;;;;;;6.15;1.00;;;;;;;15.45;54.54;99713.28;7387042;19;20017;-78
2024/04/15 09:24:17;;;;;;;3.05;1.10;;;;;;;16.00;53.46;99724.97;7392908;19;20007;-79
2024/04/15 09:26:43;;;;;;;4.38;1.10;;;;;;;16.31;51.65;99749.22;7393500;19;21050;-78
2024/04/15 09:29:11;;;;;;;5.00;0.95;;;;;;;16.12;52.91;99732.00;7395984;19;20117;-78
2024/04/15 09:31:37;;;;;;;3.55;1.08;;;;;;;16.01;53.22;99707.13;7386469;19;20015;-78
2024/04/15 09:34:02;;;;;;;3.35;0.75;;;;;;;16.24;51.26;99724.81;7374525;19;20360;-79
2024/04/15 09:36:30;;;;;;;2.05;0.90;;;;;;;16.41;49.09;99700.25;7394897;19;20015;-79
2024/04/15 09:38:59;;;;;;;2.25;0.90;;;;;;;16.83;48.62;99753.88;7394433;19;20038;-79
2024/04/15 09:41:25;;;;;;;3.35;0.90;;;;;;;16.68;48.82;99744.44;7393343;19;20017;-78
2024/04/15 09:43:52;;;;;;;3.95;0.80;;;;;;;16.81;49.32;99723.72;7371191;19;20037;-79
2024/04/15 09:46:19;;;;;;;3.90;0.73;;;;;;;16.78;48.77;99699.91;7392918;19;20018;-79
2024/04/15 09:48:50;;;;;;;3.88;1.00;;;;;;;16.58;48.12;99631.19;7393794;19;20226;-79
2024/04/15 09:51:22;;;;;;;1.95;0.80;;;;;;;16.92;47.49;99688.91;7392977;19;20014;-79
2024/04/15 09:53:51;;;;;;;7.07;0.98;;;;;;;16.83;47.50;99682.53;7390342;19;20022;-79
2024/04/15 09:56:28;;;;;;;3.17;1.05;;;;;;;17.00;47.10;99685.59;7395031;19;20018;-77
2024/04/15 09:58:57;;;;;;;4.30;0.77;;;;;;;16.89;45.16;99648.19;7392106;19;20042;-79
2024/04/15 10:01:31;;;;;;;3.92;1.20;;;;;;;16.90;44.95;99653.41;7391010;19;20018;-78
2024/04/15 10:04:01;;;;;;;3.53;0.70;;;;;;;16.92;45.38;99666.66;7389497;19;20018;-76
2024/04/15 10:06:41;;;;;;;3.75;1.10;;;;;;;16.72;44.35;99580.97;7406454;19;20022;-77
2024/04/15 10:09:09;;;;;;;3.08;0.70;;;;;;;17.46;42.99;99663.75;7396424;19;20042;-77
2024/04/15 10:11:35;;;;;;;1.20;0.70;;;;;;;17.59;42.13;99636.78;7392310;19;20471;-78
2024/04/15 10:14:02;;;;;;;1.50;1.00;;;;;;;17.49;41.38;99610.78;7390907;19;20373;-78
2024/04/15 10:16:27;;;;;;;3.10;0.80;;;;;;;17.47;41.73;99590.53;7393077;19;20022;-78
2024/04/15 10:18:57;;;;;;;5.88;0.80;;;;;;;17.42;41.60;99615.00;7391847;19;20035;-78
2024/04/15 10:21:23;;;;;;;3.17;0.60;;;;;;;17.34;41.49;99600.59;7393000;19;20017;-78
2024/04/15 10:23:49;;;;;;;3.92;1.75;;;;;;;17.33;41.27;99596.22;7392535;19;20006;-78
2024/04/15 10:26:15;;;;;;;5.47;0.68;;;;;;;17.60;41.05;99620.56;7394714;19;20026;-79
2024/04/15 10:28:41;;;;;;;5.68;1.60;;;;;;;17.65;41.46;99591.56;7391021;19;20013;-79
2024/04/15 10:31:12;;;;;;;1.55;0.80;;;;;;;17.64;41.87;99589.03;7390841;19;21293;-77
2024/04/15 10:33:47;;;;;;;1.85;1.00;;;;;;;17.77;40.97;99619.97;7389110;19;20010;-78
2024/04/15 10:36:14;;;;;;;3.40;0.85;;;;;;;17.64;41.56;99591.72;7394918;19;20010;-78
2024/04/15 10:38:50;;;;;;;4.70;1.15;;;;;;;17.91;41.50;99607.16;7390961;19;20015;-78
2024/04/15 10:41:20;;;;;;;2.97;1.10;;;;;;;18.01;41.00;99602.66;7402229;19;20440;-77
2024/04/15 10:43:46;;;;;;;4.30;1.15;;;;;;;17.77;39.46;99579.78;7413168;19;20007;-77
2024/04/15 10:46:15;;;;;;;7.63;0.80;;;;;;;17.58;38.57;99574.34;7412994;19;20027;-77
2024/04/15 10:48:41;;;;;;;2.92;0.70;;;;;;;17.30;41.00;99551.00;7402391;19;20011;-80
2024/04/15 10:51:10;;;;;;;2.47;0.68;;;;;;;17.57;41.67;99591.38;7393373;19;20596;-78
2024/04/15 10:53:36;;;;;;;3.95;1.63;;;;;;;17.46;41.59;99522.75;7389430;19;20006;-78
2024/04/15 10:56:02;;;;;;;1.58;0.90;;;;;;;18.07;41.03;99586.03;7387971;19;20015;-78
2024/04/15 10:58:29;;;;;;;6.07;1.05;;;;;;;18.00;40.88;99563.47;7400096;19;20021;-79
2024/04/15 11:00:55;;;;;;;3.53;0.82;;;;;;;17.97;39.38;99543.16;7390728;19;20023;-78
2024/04/15 11:03:25;;;;;;;1.90;0.68;;;;;;;17.98;39.67;99566.28;7390221;19;20107;-79
2024/04/15 11:05:50;;;;;;;3.25;0.90;;;;;;;17.59;39.63;99517.16;7372381;19;20046;-78
2024/04/15 11:08:16;;;;;;;3.67;0.77;;;;;;;17.28;40.43;99524.38;7390083;19;20026;-78
2024/04/15 11:10:43;;;;;;;2.40;0.70;;;;;;;17.34;41.32;99547.91;7392067;19;20014;-78
2024/04/15 11:13:12;;;;;;;4.05;0.70;;;;;;;17.23;41.91;99499.00;7385955;19;20042;-78
2024/04/15 11:15:40;;;;;;;5.68;0.80;;;;;;;17.45;41.24;99544.31;7392219;19;20006;-79
2024/04/15 11:18:13;;;;;;;4.93;0.70;;;;;;;17.58;41.13;99523.47;7368389;19;20017;-76
2024/04/15 11:20:39;;;;;;;3.83;0.70;;;;;;;17.97;39.58;99499.44;7387893;19;20021;-80
2024/04/15 11:23:06;;;;;;;2.60;0.88;;;;;;;18.13;38.29;99478.28;7387388;19;20002;-78
2024/04/15 11:25:33;;;;;;;2.50;0.93;;;;;;;18.44;39.01;99484.31;7393502;19;20034;-79